This is the latest recevied weather packets stored in our database for station/object SQ3VAS-10. If no packets are shown the sender has not sent any weather packets the latest 10 day(s).
| Time | Temp. | Humidity | Pressure | Rain* | Wind** | Luminosity | Snow |
|---|---|---|---|---|---|---|---|
| 1777830454 | 27.78° C | 25% | 1009.5 hPa | - | - | - | - |
| 1777829882 | 28.89° C | 24% | 1009.5 hPa | - | - | - | - |
| 1777829310 | 29.44° C | 23% | 1009.6 hPa | - | - | - | - |
| 1777828738 | 29.44° C | 22% | 1009.5 hPa | - | - | - | - |
| 1777828166 | 29.44° C | 22% | 1009.5 hPa | - | - | - | - |
| 1777827595 | 30° C | 21% | 1009.5 hPa | - | - | - | - |
| 1777827022 | 31.67° C | 20% | 1009.4 hPa | - | - | - | - |
| 1777826449 | 31.67° C | 20% | 1009.5 hPa | - | - | - | - |
| 1777825880 | 33.33° C | 18% | 1009.5 hPa | - | - | - | - |
| 1777825304 | 32.78° C | 18% | 1009.6 hPa | - | - | - | - |
| 1777824730 | 32.78° C | 19% | 1009.7 hPa | - | - | - | - |
| 1777824158 | 31.11° C | 19% | 1009.7 hPa | - | - | - | - |
| 1777823584 | 32.78° C | 18% | 1009.7 hPa | - | - | - | - |
| 1777823010 | 31.67° C | 20% | 1009.8 hPa | - | - | - | - |
| 1777822440 | 32.22° C | 20% | 1009.9 hPa | - | - | - | - |
| 1777821862 | 32.78° C | 19% | 1009.9 hPa | - | - | - | - |
| 1777821289 | 32.22° C | 20% | 1010 hPa | - | - | - | - |
| 1777820716 | 33.33° C | 20% | 1009.9 hPa | - | - | - | - |
| 1777820143 | 33.33° C | 19% | 1010.1 hPa | - | - | - | - |
| 1777819570 | 31.67° C | 20% | 1010.4 hPa | - | - | - | - |
| 1777818997 | 33.33° C | 19% | 1010.2 hPa | - | - | - | - |
| 1777818423 | 33.89° C | 18% | 1010.3 hPa | - | - | - | - |
| 1777817851 | 32.78° C | 19% | 1010.5 hPa | - | - | - | - |
| 1777817277 | 33.89° C | 19% | 1010.5 hPa | - | - | - | - |
| 1777816707 | 32.78° C | 20% | 1010.6 hPa | - | - | - | - |
* Rain since midnight (hover to see other rain measurements)
** Current wind speed in m/s (hover to see current wind gust speed)